sensor_id;sensor_type;location;lat;lon;timestamp;pressure;altitude;pressure_sealevel;temperature;humidity
7990;BME280;4040;42.848;23.034;2023-03-15T00:00:59;93962.50;;;5.73;78.02
7990;BME280;4040;42.848;23.034;2023-03-15T00:06:47;93956.44;;;5.66;79.99
7990;BME280;4040;42.848;23.034;2023-03-15T00:12:36;93924.53;;;5.41;83.71
7990;BME280;4040;42.848;23.034;2023-03-15T00:18:27;93927.59;;;5.36;83.95
7990;BME280;4040;42.848;23.034;2023-03-15T00:24:16;93960.28;;;5.61;87.60
7990;BME280;4040;42.848;23.034;2023-03-15T00:30:06;93877.06;;;5.01;86.18
7990;BME280;4040;42.848;23.034;2023-03-15T00:35:56;93934.41;;;5.44;88.80
7990;BME280;4040;42.848;23.034;2023-03-15T00:41:45;93917.63;;;5.47;85.76
7990;BME280;4040;42.848;23.034;2023-03-15T00:47:34;93914.53;;;5.56;83.74
7990;BME280;4040;42.848;23.034;2023-03-15T00:53:24;93898.53;;;5.52;80.23
7990;BME280;4040;42.848;23.034;2023-03-15T00:59:13;93907.97;;;5.67;77.38
7990;BME280;4040;42.848;23.034;2023-03-15T01:08:45;93896.16;;;5.65;75.23
7990;BME280;4040;42.848;23.034;2023-03-15T01:14:35;93901.53;;;5.58;78.67
7990;BME280;4040;42.848;23.034;2023-03-15T01:20:25;93885.50;;;5.61;81.86
7990;BME280;4040;42.848;23.034;2023-03-15T01:26:16;93871.00;;;5.62;82.95
7990;BME280;4040;42.848;23.034;2023-03-15T01:32:06;93875.16;;;5.67;86.00
7990;BME280;4040;42.848;23.034;2023-03-15T01:37:55;93861.84;;;5.60;86.92
7990;BME280;4040;42.848;23.034;2023-03-15T01:43:45;93864.19;;;5.51;92.42
7990;BME280;4040;42.848;23.034;2023-03-15T01:49:35;93852.44;;;5.41;91.45
7990;BME280;4040;42.848;23.034;2023-03-15T01:55:24;93838.31;;;5.41;88.72
7990;BME280;4040;42.848;23.034;2023-03-15T02:01:15;93839.84;;;5.42;88.70
7990;BME280;4040;42.848;23.034;2023-03-15T02:11:06;93814.19;;;4.93;96.72
7990;BME280;4040;42.848;23.034;2023-03-15T02:16:56;93814.25;;;4.87;100.00
7990;BME280;4040;42.848;23.034;2023-03-15T02:22:49;93819.59;;;4.87;100.00
7990;BME280;4040;42.848;23.034;2023-03-15T02:28:42;93814.72;;;4.61;100.00
7990;BME280;4040;42.848;23.034;2023-03-15T02:34:32;93775.63;;;4.26;100.00
7990;BME280;4040;42.848;23.034;2023-03-15T02:40:23;93803.81;;;4.24;100.00
7990;BME280;4040;42.848;23.034;2023-03-15T02:46:16;93798.56;;;4.03;100.00
7990;BME280;4040;42.848;23.034;2023-03-15T02:52:06;93794.75;;;3.93;100.00
7990;BME280;4040;42.848;23.034;2023-03-15T02:57:55;93770.41;;;3.88;100.00
7990;BME280;4040;42.848;23.034;2023-03-15T03:03:46;93777.28;;;3.75;100.00
7990;BME280;4040;42.848;23.034;2023-03-15T03:13:57;93683.81;;;3.24;100.00
7990;BME280;4040;42.848;23.034;2023-03-15T03:19:48;93762.47;;;3.67;100.00
7990;BME280;4040;42.848;23.034;2023-03-15T03:25:38;93753.72;;;3.59;100.00
7990;BME280;4040;42.848;23.034;2023-03-15T03:31:27;93724.81;;;3.54;100.00
7990;BME280;4040;42.848;23.034;2023-03-15T03:37:18;93745.31;;;3.82;100.00
7990;BME280;4040;42.848;23.034;2023-03-15T03:43:07;93742.25;;;3.87;100.00
7990;BME280;4040;42.848;23.034;2023-03-15T03:48:56;93755.19;;;3.92;100.00
7990;BME280;4040;42.848;23.034;2023-03-15T03:54:47;93708.00;;;3.89;100.00
7990;BME280;4040;42.848;23.034;2023-03-15T04:00:36;93719.44;;;3.86;100.00
7990;BME280;4040;42.848;23.034;2023-03-15T04:06:25;93736.50;;;4.06;100.00
7990;BME280;4040;42.848;23.034;2023-03-15T04:16:37;93739.91;;;4.10;100.00
7990;BME280;4040;42.848;23.034;2023-03-15T04:22:26;93685.19;;;3.88;100.00
7990;BME280;4040;42.848;23.034;2023-03-15T04:28:15;93695.78;;;4.09;100.00
7990;BME280;4040;42.848;23.034;2023-03-15T04:34:05;93721.53;;;4.40;100.00
7990;BME280;4040;42.848;23.034;2023-03-15T04:39:57;93717.41;;;4.28;100.00
7990;BME280;4040;42.848;23.034;2023-03-15T04:45:47;93717.00;;;4.26;100.00
7990;BME280;4040;42.848;23.034;2023-03-15T04:51:37;93725.41;;;4.28;100.00
7990;BME280;4040;42.848;23.034;2023-03-15T04:57:26;93701.78;;;4.27;100.00
7990;BME280;4040;42.848;23.034;2023-03-15T05:03:16;93699.84;;;4.38;100.00
7990;BME280;4040;42.848;23.034;2023-03-15T05:09:06;93626.56;;;4.02;100.00
7990;BME280;4040;42.848;23.034;2023-03-15T05:19:17;93525.63;;;3.49;100.00
7990;BME280;4040;42.848;23.034;2023-03-15T05:25:08;93657.47;;;4.54;95.52
7990;BME280;4040;42.848;23.034;2023-03-15T05:30:57;93664.25;;;4.65;92.23
7990;BME280;4040;42.848;23.034;2023-03-15T05:36:49;93713.47;;;5.11;90.17
7990;BME280;4040;42.848;23.034;2023-03-15T05:42:39;93656.59;;;5.21;83.91
7990;BME280;4040;42.848;23.034;2023-03-15T05:48:28;93697.81;;;5.57;81.79
7990;BME280;4040;42.848;23.034;2023-03-15T05:54:18;93694.47;;;5.90;73.60
7990;BME280;4040;42.848;23.034;2023-03-15T06:00:10;93607.16;;;6.67;67.79
7990;BME280;4040;42.848;23.034;2023-03-15T06:06:01;93635.78;;;7.84;61.25
7990;BME280;4040;42.848;23.034;2023-03-15T06:11:54;93656.88;;;7.17;62.65
7990;BME280;4040;42.848;23.034;2023-03-15T06:22:08;93672.81;;;6.98;64.11
7990;BME280;4040;42.848;23.034;2023-03-15T06:27:57;93692.69;;;7.23;61.38
7990;BME280;4040;42.848;23.034;2023-03-15T06:33:47;93693.13;;;9.04;56.74
7990;BME280;4040;42.848;23.034;2023-03-15T06:39:38;93703.78;;;12.31;48.52
7990;BME280;4040;42.848;23.034;2023-03-15T06:45:27;93677.13;;;12.85;46.66
7990;BME280;4040;42.848;23.034;2023-03-15T06:51:17;93685.44;;;12.69;43.40
7990;BME280;4040;42.848;23.034;2023-03-15T06:57:08;93689.47;;;12.43;45.32
7990;BME280;4040;42.848;23.034;2023-03-15T07:02:57;93705.91;;;14.37;40.58
7990;BME280;4040;42.848;23.034;2023-03-15T07:08:45;93691.88;;;15.42;37.16
7990;BME280;4040;42.848;23.034;2023-03-15T07:14:36;93681.03;;;16.45;35.68
7990;BME280;4040;42.848;23.034;2023-03-15T07:24:47;93688.28;;;13.17;39.97
7990;BME280;4040;42.848;23.034;2023-03-15T07:30:37;93681.19;;;17.23;34.14
7990;BME280;4040;42.848;23.034;2023-03-15T07:36:26;93671.19;;;13.78;38.44
7990;BME280;4040;42.848;23.034;2023-03-15T07:42:14;93663.72;;;14.81;38.60
7990;BME280;4040;42.848;23.034;2023-03-15T07:48:05;93643.56;;;14.64;36.79
7990;BME280;4040;42.848;23.034;2023-03-15T07:53:54;93654.94;;;16.01;36.09
7990;BME280;4040;42.848;23.034;2023-03-15T07:59:43;93649.84;;;14.97;36.96
7990;BME280;4040;42.848;23.034;2023-03-15T08:05:33;93659.34;;;15.33;37.07
7990;BME280;4040;42.848;23.034;2023-03-15T08:11:22;93647.94;;;13.98;38.92
7990;BME280;4040;42.848;23.034;2023-03-15T08:17:11;93633.97;;;14.36;39.36
7990;BME280;4040;42.848;23.034;2023-03-15T08:27:24;93636.47;;;13.19;40.57
7990;BME280;4040;42.848;23.034;2023-03-15T08:33:13;93604.06;;;12.58;41.50
7990;BME280;4040;42.848;23.034;2023-03-15T08:39:02;93617.06;;;16.73;35.85
7990;BME280;4040;42.848;23.034;2023-03-15T08:44:53;93616.31;;;18.65;33.35
7990;BME280;4040;42.848;23.034;2023-03-15T08:50:45;93611.94;;;15.11;37.73
7990;BME280;4040;42.848;23.034;2023-03-15T08:56:34;93611.31;;;16.04;37.22
7990;BME280;4040;42.848;23.034;2023-03-15T09:02:24;93587.19;;;14.08;40.46
7990;BME280;4040;42.848;23.034;2023-03-15T09:08:13;93603.00;;;16.89;36.14
7990;BME280;4040;42.848;23.034;2023-03-15T09:14:02;93566.59;;;14.20;40.00
7990;BME280;4040;42.848;23.034;2023-03-15T09:19:53;93610.34;;;16.31;38.14
7990;BME280;4040;42.848;23.034;2023-03-15T09:30:04;93595.31;;;14.17;42.43
7990;BME280;4040;42.848;23.034;2023-03-15T09:35:54;93598.41;;;13.53;44.65
7990;BME280;4040;42.848;23.034;2023-03-15T09:41:45;93594.88;;;14.28;44.21
7990;BME280;4040;42.848;23.034;2023-03-15T09:47:39;93573.16;;;14.46;43.30
7990;BME280;4040;42.848;23.034;2023-03-15T09:53:37;93584.31;;;14.21;44.40
7990;BME280;4040;42.848;23.034;2023-03-15T09:59:31;93579.09;;;13.15;45.97
7990;BME280;4040;42.848;23.034;2023-03-15T10:05:22;93574.94;;;13.32;46.03
7990;BME280;4040;42.848;23.034;2023-03-15T10:11:21;93575.25;;;14.51;43.65
7990;BME280;4040;42.848;23.034;2023-03-15T10:17:12;93565.91;;;16.19;41.50
7990;BME280;4040;42.848;23.034;2023-03-15T10:23:04;93558.19;;;19.88;35.52
7990;BME280;4040;42.848;23.034;2023-03-15T10:33:27;93587.03;;;13.94;45.29
7990;BME280;4040;42.848;23.034;2023-03-15T10:39:16;93564.97;;;13.11;48.86
7990;BME280;4040;42.848;23.034;2023-03-15T10:45:18;93568.75;;;12.83;50.94
7990;BME280;4040;42.848;23.034;2023-03-15T10:51:19;93519.13;;;11.98;52.72
7990;BME280;4040;42.848;23.034;2023-03-15T10:57:13;93581.09;;;12.32;53.83
7990;BME280;4040;42.848;23.034;2023-03-15T11:03:06;93576.88;;;12.10;55.52
7990;BME280;4040;42.848;23.034;2023-03-15T11:09:09;93578.03;;;11.78;56.76
7990;BME280;4040;42.848;23.034;2023-03-15T11:15:01;93430.78;;;10.57;59.10
7990;BME280;4040;42.848;23.034;2023-03-15T11:20:51;93569.53;;;11.33;60.97
7990;BME280;4040;42.848;23.034;2023-03-15T11:26:44;93459.84;;;10.62;62.98
7990;BME280;4040;42.848;23.034;2023-03-15T11:32:38;93416.38;;;10.01;66.10
7990;BME280;4040;42.848;23.034;2023-03-15T11:38:30;93509.84;;;10.38;69.17
7990;BME280;4040;42.848;23.034;2023-03-15T11:44:27;93556.44;;;10.48;74.54
7990;BME280;4040;42.848;23.034;2023-03-15T11:50:18;93411.25;;;8.56;91.20
7990;BME280;4040;42.848;23.034;2023-03-15T11:56:22;93430.19;;;8.65;100.00
7990;BME280;4040;42.848;23.034;2023-03-15T12:02:45;93547.13;;;8.82;100.00
7990;BME280;4040;42.848;23.034;2023-03-15T12:08:47;93442.94;;;8.13;100.00
7990;BME280;4040;42.848;23.034;2023-03-15T12:14:37;93419.47;;;8.17;100.00
7990;BME280;4040;42.848;23.034;2023-03-15T12:20:33;93359.66;;;8.36;100.00
7990;BME280;4040;42.848;23.034;2023-03-15T12:26:26;93559.28;;;9.75;100.00
7990;BME280;4040;42.848;23.034;2023-03-15T12:29:05;93440.34;;;9.02;100.00
7990;BME280;4040;42.848;23.034;2023-03-15T12:34:55;93441.22;;;8.99;100.00
7990;BME280;4040;42.848;23.034;2023-03-15T12:40:52;93399.97;;;8.93;100.00
7990;BME280;4040;42.848;23.034;2023-03-15T12:46:58;93401.47;;;9.35;98.70
7990;BME280;4040;42.848;23.034;2023-03-15T12:52:47;93402.31;;;9.32;96.51
7990;BME280;4040;42.848;23.034;2023-03-15T12:58:41;93390.25;;;9.11;100.00
7990;BME280;4040;42.848;23.034;2023-03-15T13:04:31;93508.94;;;10.16;100.00
7990;BME280;4040;42.848;23.034;2023-03-15T13:10:29;93541.06;;;10.48;96.80
7990;BME280;4040;42.848;23.034;2023-03-15T13:16:26;93534.81;;;10.51;100.00
7990;BME280;4040;42.848;23.034;2023-03-15T13:22:25;93530.72;;;10.47;97.98
7990;BME280;4040;42.848;23.034;2023-03-15T13:28:21;93524.34;;;10.41;100.00
7990;BME280;4040;42.848;23.034;2023-03-15T13:34:14;93525.09;;;10.16;100.00
7990;BME280;4040;42.848;23.034;2023-03-15T13:40:10;93529.19;;;10.08;100.00
7990;BME280;4040;42.848;23.034;2023-03-15T13:46:00;93532.19;;;10.10;99.48
7990;BME280;4040;42.848;23.034;2023-03-15T13:51:52;93480.53;;;9.62;97.04
7990;BME280;4040;42.848;23.034;2023-03-15T13:57:41;93551.19;;;9.91;93.18
7990;BME280;4040;42.848;23.034;2023-03-15T14:03:30;93548.44;;;9.79;96.94
7990;BME280;4040;42.848;23.034;2023-03-15T14:09:22;93548.06;;;9.64;100.00
7990;BME280;4040;42.848;23.034;2023-03-15T14:15:18;93417.22;;;8.47;100.00
7990;BME280;4040;42.848;23.034;2023-03-15T14:21:13;93429.22;;;8.43;100.00
7990;BME280;4040;42.848;23.034;2023-03-15T14:27:07;93565.03;;;9.01;100.00
7990;BME280;4040;42.848;23.034;2023-03-15T14:32:58;93431.25;;;7.87;100.00
7990;BME280;4040;42.848;23.034;2023-03-15T14:38:52;93294.50;;;7.08;100.00
7990;BME280;4040;42.848;23.034;2023-03-15T14:44:43;93550.63;;;8.63;100.00
7990;BME280;4040;42.848;23.034;2023-03-15T14:50:34;93440.53;;;7.83;100.00
7990;BME280;4040;42.848;23.034;2023-03-15T14:56:24;93528.66;;;8.52;100.00
7990;BME280;4040;42.848;23.034;2023-03-15T15:02:16;93541.03;;;8.46;100.00
7990;BME280;4040;42.848;23.034;2023-03-15T15:08:08;93534.84;;;8.33;100.00
7990;BME280;4040;42.848;23.034;2023-03-15T15:13:58;93474.28;;;7.80;100.00
7990;BME280;4040;42.848;23.034;2023-03-15T15:19:49;93578.91;;;8.67;100.00
7990;BME280;4040;42.848;23.034;2023-03-15T15:25:37;93550.81;;;8.20;100.00
7990;BME280;4040;42.848;23.034;2023-03-15T15:35:51;93598.88;;;8.31;100.00
7990;BME280;4040;42.848;23.034;2023-03-15T15:41:41;93611.34;;;8.18;100.00
7990;BME280;4040;42.848;23.034;2023-03-15T15:47:30;93614.53;;;7.74;100.00
7990;BME280;4040;42.848;23.034;2023-03-15T15:53:20;93610.69;;;7.75;100.00
7990;BME280;4040;42.848;23.034;2023-03-15T15:59:12;93618.38;;;7.73;100.00
7990;BME280;4040;42.848;23.034;2023-03-15T16:05:02;93620.44;;;7.85;100.00
7990;BME280;4040;42.848;23.034;2023-03-15T16:10:52;93612.56;;;7.78;100.00
7990;BME280;4040;42.848;23.034;2023-03-15T16:16:41;93617.41;;;7.83;100.00
7990;BME280;4040;42.848;23.034;2023-03-15T16:22:29;93639.41;;;7.94;100.00
7990;BME280;4040;42.848;23.034;2023-03-15T16:28:24;93642.94;;;7.91;100.00
7990;BME280;4040;42.848;23.034;2023-03-15T16:38:35;93659.22;;;8.00;100.00
7990;BME280;4040;42.848;23.034;2023-03-15T16:44:25;93662.13;;;8.09;100.00
7990;BME280;4040;42.848;23.034;2023-03-15T16:50:14;93666.59;;;8.15;100.00
7990;BME280;4040;42.848;23.034;2023-03-15T16:56:03;93657.28;;;8.00;100.00
7990;BME280;4040;42.848;23.034;2023-03-15T17:01:55;93663.63;;;8.10;100.00
7990;BME280;4040;42.848;23.034;2023-03-15T17:07:44;93687.78;;;8.29;100.00
7990;BME280;4040;42.848;23.034;2023-03-15T17:13:35;93689.94;;;8.15;100.00
7990;BME280;4040;42.848;23.034;2023-03-15T17:19:28;93690.75;;;8.35;100.00
7990;BME280;4040;42.848;23.034;2023-03-15T17:25:18;93690.59;;;8.22;100.00
7990;BME280;4040;42.848;23.034;2023-03-15T17:31:12;93698.44;;;8.33;100.00
7990;BME280;4040;42.848;23.034;2023-03-15T17:41:26;93711.13;;;8.09;100.00
7990;BME280;4040;42.848;23.034;2023-03-15T17:47:15;93707.38;;;7.84;100.00
7990;BME280;4040;42.848;23.034;2023-03-15T17:53:09;93702.25;;;7.93;100.00
7990;BME280;4040;42.848;23.034;2023-03-15T17:59:01;93719.84;;;7.94;100.00
7990;BME280;4040;42.848;23.034;2023-03-15T18:04:49;93719.16;;;7.90;100.00
7990;BME280;4040;42.848;23.034;2023-03-15T18:10:40;93707.22;;;7.48;100.00
7990;BME280;4040;42.848;23.034;2023-03-15T18:16:30;93717.06;;;7.78;100.00
7990;BME280;4040;42.848;23.034;2023-03-15T18:22:19;93718.94;;;7.58;100.00
7990;BME280;4040;42.848;23.034;2023-03-15T18:28:08;93727.66;;;7.62;100.00
7990;BME280;4040;42.848;23.034;2023-03-15T18:33:58;93726.50;;;7.63;100.00
7990;BME280;4040;42.848;23.034;2023-03-15T18:44:09;93727.31;;;7.60;100.00
7990;BME280;4040;42.848;23.034;2023-03-15T18:50:00;93741.84;;;7.62;100.00
7990;BME280;4040;42.848;23.034;2023-03-15T18:55:50;93720.03;;;7.38;100.00
7990;BME280;4040;42.848;23.034;2023-03-15T19:01:39;93751.09;;;7.58;100.00
7990;BME280;4040;42.848;23.034;2023-03-15T19:07:30;93754.34;;;7.46;100.00
7990;BME280;4040;42.848;23.034;2023-03-15T19:13:19;93695.59;;;7.09;100.00
7990;BME280;4040;42.848;23.034;2023-03-15T19:19:08;93764.25;;;7.49;100.00
7990;BME280;4040;42.848;23.034;2023-03-15T19:24:59;93749.47;;;7.38;100.00
7990;BME280;4040;42.848;23.034;2023-03-15T19:30:48;93776.47;;;7.50;100.00
7990;BME280;4040;42.848;23.034;2023-03-15T19:36:37;93781.19;;;7.43;100.00
7990;BME280;4040;42.848;23.034;2023-03-15T19:46:49;93802.06;;;6.98;100.00
7990;BME280;4040;42.848;23.034;2023-03-15T19:52:38;93804.56;;;6.82;100.00
7990;BME280;4040;42.848;23.034;2023-03-15T19:58:31;93816.09;;;6.76;100.00
7990;BME280;4040;42.848;23.034;2023-03-15T20:04:22;93828.19;;;6.54;100.00
7990;BME280;4040;42.848;23.034;2023-03-15T20:10:12;93828.47;;;6.29;100.00
7990;BME280;4040;42.848;23.034;2023-03-15T20:16:00;93835.97;;;6.04;100.00
7990;BME280;4040;42.848;23.034;2023-03-15T20:21:51;93835.84;;;5.67;100.00
7990;BME280;4040;42.848;23.034;2023-03-15T20:27:41;93833.09;;;5.23;100.00
7990;BME280;4040;42.848;23.034;2023-03-15T20:33:29;93872.84;;;5.07;100.00
7990;BME280;4040;42.848;23.034;2023-03-15T20:39:20;93888.09;;;5.00;100.00
7990;BME280;4040;42.848;23.034;2023-03-15T20:49:32;93901.16;;;4.81;100.00
7990;BME280;4040;42.848;23.034;2023-03-15T20:55:22;93896.59;;;4.71;100.00
7990;BME280;4040;42.848;23.034;2023-03-15T21:01:11;93898.97;;;4.41;100.00
7990;BME280;4040;42.848;23.034;2023-03-15T21:07:02;93904.31;;;4.20;100.00
7990;BME280;4040;42.848;23.034;2023-03-15T21:12:53;93924.50;;;4.10;100.00
7990;BME280;4040;42.848;23.034;2023-03-15T21:18:42;93902.44;;;3.82;100.00
7990;BME280;4040;42.848;23.034;2023-03-15T21:24:31;93928.28;;;3.78;100.00
7990;BME280;4040;42.848;23.034;2023-03-15T21:30:23;93936.66;;;3.76;100.00
7990;BME280;4040;42.848;23.034;2023-03-15T21:36:12;93933.97;;;3.55;100.00
7990;BME280;4040;42.848;23.034;2023-03-15T21:42:00;93960.56;;;3.48;100.00
7990;BME280;4040;42.848;23.034;2023-03-15T21:52:13;93977.25;;;3.35;100.00
7990;BME280;4040;42.848;23.034;2023-03-15T21:58:03;93958.22;;;3.19;100.00
7990;BME280;4040;42.848;23.034;2023-03-15T22:03:51;93984.06;;;3.22;100.00
7990;BME280;4040;42.848;23.034;2023-03-15T22:09:42;93965.00;;;3.13;100.00
7990;BME280;4040;42.848;23.034;2023-03-15T22:15:31;93987.78;;;3.07;100.00
7990;BME280;4040;42.848;23.034;2023-03-15T22:21:20;93990.81;;;3.05;100.00
7990;BME280;4040;42.848;23.034;2023-03-15T22:27:11;93997.59;;;2.89;100.00
7990;BME280;4040;42.848;23.034;2023-03-15T22:33:00;94007.41;;;2.85;100.00
7990;BME280;4040;42.848;23.034;2023-03-15T22:38:49;94012.75;;;2.88;100.00
7990;BME280;4040;42.848;23.034;2023-03-15T22:44:39;94010.47;;;2.90;100.00
7990;BME280;4040;42.848;23.034;2023-03-15T22:54:50;94023.41;;;2.88;100.00
7990;BME280;4040;42.848;23.034;2023-03-15T23:08:31;94037.66;;;2.63;100.00
7990;BME280;4040;42.848;23.034;2023-03-15T23:14:20;94038.06;;;2.65;100.00
7990;BME280;4040;42.848;23.034;2023-03-15T23:20:10;94043.81;;;2.74;100.00
7990;BME280;4040;42.848;23.034;2023-03-15T23:26:00;94042.31;;;2.76;100.00
7990;BME280;4040;42.848;23.034;2023-03-15T23:31:50;94060.50;;;2.71;100.00
7990;BME280;4040;42.848;23.034;2023-03-15T23:37:39;94052.91;;;2.73;100.00
7990;BME280;4040;42.848;23.034;2023-03-15T23:43:30;94065.44;;;2.69;100.00
7990;BME280;4040;42.848;23.034;2023-03-15T23:49:19;94013.13;;;2.30;100.00
7990;BME280;4040;42.848;23.034;2023-03-15T23:55:12;94052.69;;;2.45;100.00
